sensor_id;sensor_type;location;lat;lon;timestamp;P1;durP1;ratioP1;P2;durP2;ratioP2
76826;SDS011;65788;52.284;20.890;2023-02-28T00:01:09;18.80;;;11.10;;
76826;SDS011;65788;52.284;20.890;2023-02-28T00:03:37;16.40;;;11.40;;
76826;SDS011;65788;52.284;20.890;2023-02-28T00:06:05;16.60;;;10.90;;
76826;SDS011;65788;52.284;20.890;2023-02-28T00:08:32;18.30;;;11.70;;
76826;SDS011;65788;52.284;20.890;2023-02-28T00:11:03;15.60;;;11.20;;
76826;SDS011;65788;52.284;20.890;2023-02-28T00:13:33;17.60;;;11.80;;
76826;SDS011;65788;52.284;20.890;2023-02-28T00:16:03;19.00;;;11.80;;
76826;SDS011;65788;52.284;20.890;2023-02-28T00:18:33;19.10;;;12.20;;
76826;SDS011;65788;52.284;20.890;2023-02-28T00:21:00;18.70;;;10.90;;
76826;SDS011;65788;52.284;20.890;2023-02-28T00:23:27;18.20;;;11.30;;
76826;SDS011;65788;52.284;20.890;2023-02-28T00:25:55;19.50;;;11.90;;
76826;SDS011;65788;52.284;20.890;2023-02-28T00:28:22;20.00;;;12.30;;
76826;SDS011;65788;52.284;20.890;2023-02-28T00:30:49;19.00;;;12.00;;
76826;SDS011;65788;52.284;20.890;2023-02-28T00:33:16;15.90;;;10.60;;
76826;SDS011;65788;52.284;20.890;2023-02-28T00:35:46;18.00;;;12.60;;
76826;SDS011;65788;52.284;20.890;2023-02-28T00:38:13;17.50;;;11.00;;
76826;SDS011;65788;52.284;20.890;2023-02-28T00:40:41;18.30;;;12.10;;
76826;SDS011;65788;52.284;20.890;2023-02-28T00:43:08;17.20;;;12.10;;
76826;SDS011;65788;52.284;20.890;2023-02-28T00:45:35;18.30;;;12.50;;
76826;SDS011;65788;52.284;20.890;2023-02-28T00:48:03;18.50;;;11.90;;
76826;SDS011;65788;52.284;20.890;2023-02-28T00:50:31;17.20;;;11.30;;
76826;SDS011;65788;52.284;20.890;2023-02-28T00:52:58;18.70;;;11.60;;
76826;SDS011;65788;52.284;20.890;2023-02-28T00:55:25;18.40;;;11.50;;
76826;SDS011;65788;52.284;20.890;2023-02-28T00:57:52;18.60;;;11.60;;
76826;SDS011;65788;52.284;20.890;2023-02-28T01:00:20;18.80;;;12.50;;
76826;SDS011;65788;52.284;20.890;2023-02-28T01:02:47;22.10;;;12.20;;
76826;SDS011;65788;52.284;20.890;2023-02-28T01:05:15;17.80;;;11.40;;
76826;SDS011;65788;52.284;20.890;2023-02-28T01:07:43;17.70;;;12.10;;
76826;SDS011;65788;52.284;20.890;2023-02-28T01:10:10;17.70;;;11.10;;
76826;SDS011;65788;52.284;20.890;2023-02-28T01:12:38;17.60;;;12.10;;
76826;SDS011;65788;52.284;20.890;2023-02-28T01:15:09;16.80;;;10.70;;
76826;SDS011;65788;52.284;20.890;2023-02-28T01:17:37;18.20;;;11.70;;
76826;SDS011;65788;52.284;20.890;2023-02-28T01:20:04;18.40;;;10.90;;
76826;SDS011;65788;52.284;20.890;2023-02-28T01:22:31;17.20;;;12.10;;
76826;SDS011;65788;52.284;20.890;2023-02-28T01:24:58;18.30;;;11.10;;
76826;SDS011;65788;52.284;20.890;2023-02-28T01:27:25;19.00;;;12.00;;
76826;SDS011;65788;52.284;20.890;2023-02-28T01:29:53;18.00;;;11.30;;
76826;SDS011;65788;52.284;20.890;2023-02-28T01:32:22;17.40;;;10.90;;
76826;SDS011;65788;52.284;20.890;2023-02-28T01:34:49;17.10;;;11.50;;
76826;SDS011;65788;52.284;20.890;2023-02-28T01:37:16;21.20;;;12.40;;
76826;SDS011;65788;52.284;20.890;2023-02-28T01:39:43;16.10;;;10.80;;
76826;SDS011;65788;52.284;20.890;2023-02-28T01:42:12;16.90;;;11.20;;
76826;SDS011;65788;52.284;20.890;2023-02-28T01:47:29;18.10;;;11.80;;
76826;SDS011;65788;52.284;20.890;2023-02-28T01:50:02;17.30;;;11.80;;
76826;SDS011;65788;52.284;20.890;2023-02-28T01:52:34;15.30;;;11.00;;
76826;SDS011;65788;52.284;20.890;2023-02-28T01:55:04;17.50;;;11.20;;
76826;SDS011;65788;52.284;20.890;2023-02-28T01:57:34;19.40;;;12.10;;
76826;SDS011;65788;52.284;20.890;2023-02-28T02:00:11;17.20;;;11.30;;
76826;SDS011;65788;52.284;20.890;2023-02-28T02:02:42;17.90;;;12.50;;
76826;SDS011;65788;52.284;20.890;2023-02-28T02:05:14;15.90;;;11.80;;
76826;SDS011;65788;52.284;20.890;2023-02-28T02:07:45;17.20;;;11.50;;
76826;SDS011;65788;52.284;20.890;2023-02-28T02:10:16;17.50;;;11.20;;
76826;SDS011;65788;52.284;20.890;2023-02-28T02:15:49;18.20;;;11.70;;
76826;SDS011;65788;52.284;20.890;2023-02-28T02:32:38;18.60;;;12.00;;
76826;SDS011;65788;52.284;20.890;2023-02-28T02:35:13;16.50;;;11.70;;
76826;SDS011;65788;52.284;20.890;2023-02-28T02:40:51;18.10;;;11.40;;
76826;SDS011;65788;52.284;20.890;2023-02-28T02:43:48;17.60;;;11.20;;
76826;SDS011;65788;52.284;20.890;2023-02-28T02:46:20;17.50;;;12.00;;
76826;SDS011;65788;52.284;20.890;2023-02-28T02:49:09;16.60;;;11.10;;
76826;SDS011;65788;52.284;20.890;2023-02-28T02:51:42;17.00;;;11.10;;
76826;SDS011;65788;52.284;20.890;2023-02-28T02:54:13;18.80;;;11.20;;
76826;SDS011;65788;52.284;20.890;2023-02-28T02:56:47;17.60;;;11.90;;
76826;SDS011;65788;52.284;20.890;2023-02-28T02:59:17;17.60;;;10.90;;
76826;SDS011;65788;52.284;20.890;2023-02-28T03:02:01;17.90;;;11.70;;
76826;SDS011;65788;52.284;20.890;2023-02-28T03:04:32;16.10;;;11.80;;
76826;SDS011;65788;52.284;20.890;2023-02-28T03:07:05;21.10;;;12.20;;
76826;SDS011;65788;52.284;20.890;2023-02-28T03:09:33;15.60;;;10.90;;
76826;SDS011;65788;52.284;20.890;2023-02-28T03:12:04;17.60;;;12.00;;
76826;SDS011;65788;52.284;20.890;2023-02-28T03:17:16;16.90;;;12.00;;
76826;SDS011;65788;52.284;20.890;2023-02-28T03:20:04;17.70;;;12.30;;
76826;SDS011;65788;52.284;20.890;2023-02-28T03:22:45;19.30;;;12.60;;
76826;SDS011;65788;52.284;20.890;2023-02-28T03:28:34;16.00;;;11.70;;
76826;SDS011;65788;52.284;20.890;2023-02-28T03:33:40;16.80;;;11.70;;
76826;SDS011;65788;52.284;20.890;2023-02-28T03:36:17;17.70;;;11.90;;
76826;SDS011;65788;52.284;20.890;2023-02-28T03:38:48;15.60;;;11.80;;
76826;SDS011;65788;52.284;20.890;2023-02-28T03:41:21;18.00;;;11.80;;
76826;SDS011;65788;52.284;20.890;2023-02-28T03:43:58;19.50;;;12.90;;
76826;SDS011;65788;52.284;20.890;2023-02-28T03:46:33;17.50;;;11.50;;
76826;SDS011;65788;52.284;20.890;2023-02-28T03:49:08;15.80;;;12.10;;
76826;SDS011;65788;52.284;20.890;2023-02-28T03:51:46;18.30;;;11.80;;
76826;SDS011;65788;52.284;20.890;2023-02-28T03:54:25;18.80;;;11.90;;
76826;SDS011;65788;52.284;20.890;2023-02-28T03:56:59;16.70;;;11.50;;
76826;SDS011;65788;52.284;20.890;2023-02-28T03:59:36;17.60;;;12.10;;
76826;SDS011;65788;52.284;20.890;2023-02-28T04:02:08;17.60;;;12.20;;
76826;SDS011;65788;52.284;20.890;2023-02-28T04:04:36;17.00;;;12.50;;
76826;SDS011;65788;52.284;20.890;2023-02-28T04:07:05;18.10;;;12.20;;
76826;SDS011;65788;52.284;20.890;2023-02-28T04:09:35;18.80;;;12.80;;
76826;SDS011;65788;52.284;20.890;2023-02-28T04:12:02;18.10;;;13.00;;
76826;SDS011;65788;52.284;20.890;2023-02-28T04:14:29;20.10;;;13.70;;
76826;SDS011;65788;52.284;20.890;2023-02-28T04:16:57;18.20;;;13.50;;
76826;SDS011;65788;52.284;20.890;2023-02-28T04:19:24;19.70;;;12.70;;
76826;SDS011;65788;52.284;20.890;2023-02-28T04:21:52;19.10;;;13.80;;
76826;SDS011;65788;52.284;20.890;2023-02-28T04:24:23;21.40;;;13.60;;
76826;SDS011;65788;52.284;20.890;2023-02-28T04:26:53;19.00;;;13.00;;
76826;SDS011;65788;52.284;20.890;2023-02-28T04:29:23;19.80;;;13.40;;
76826;SDS011;65788;52.284;20.890;2023-02-28T04:31:53;18.70;;;12.90;;
76826;SDS011;65788;52.284;20.890;2023-02-28T04:34:22;19.80;;;13.90;;
76826;SDS011;65788;52.284;20.890;2023-02-28T04:36:50;19.70;;;13.80;;
76826;SDS011;65788;52.284;20.890;2023-02-28T04:39:17;20.70;;;13.60;;
76826;SDS011;65788;52.284;20.890;2023-02-28T04:41:45;19.60;;;13.60;;
76826;SDS011;65788;52.284;20.890;2023-02-28T04:44:12;19.40;;;13.10;;
76826;SDS011;65788;52.284;20.890;2023-02-28T04:46:40;20.80;;;14.10;;
76826;SDS011;65788;52.284;20.890;2023-02-28T04:49:11;21.00;;;13.70;;
76826;SDS011;65788;52.284;20.890;2023-02-28T04:51:38;20.60;;;13.80;;
76826;SDS011;65788;52.284;20.890;2023-02-28T04:54:06;18.10;;;12.90;;
76826;SDS011;65788;52.284;20.890;2023-02-28T04:56:33;20.40;;;13.00;;
76826;SDS011;65788;52.284;20.890;2023-02-28T04:59:00;22.60;;;13.00;;
76826;SDS011;65788;52.284;20.890;2023-02-28T05:01:29;20.50;;;13.10;;
76826;SDS011;65788;52.284;20.890;2023-02-28T05:03:59;23.80;;;13.70;;
76826;SDS011;65788;52.284;20.890;2023-02-28T05:06:30;18.90;;;12.60;;
76826;SDS011;65788;52.284;20.890;2023-02-28T05:08:59;20.20;;;12.90;;
76826;SDS011;65788;52.284;20.890;2023-02-28T05:11:28;18.90;;;12.70;;
76826;SDS011;65788;52.284;20.890;2023-02-28T05:14:02;18.90;;;12.60;;
76826;SDS011;65788;52.284;20.890;2023-02-28T05:16:32;19.80;;;13.10;;
76826;SDS011;65788;52.284;20.890;2023-02-28T05:18:59;22.70;;;13.90;;
76826;SDS011;65788;52.284;20.890;2023-02-28T05:21:59;21.00;;;14.50;;
76826;SDS011;65788;52.284;20.890;2023-02-28T05:24:20;18.00;;;13.20;;
76826;SDS011;65788;52.284;20.890;2023-02-28T05:26:52;19.90;;;13.70;;
76826;SDS011;65788;52.284;20.890;2023-02-28T05:29:21;19.30;;;12.80;;
76826;SDS011;65788;52.284;20.890;2023-02-28T05:31:49;20.10;;;13.80;;
76826;SDS011;65788;52.284;20.890;2023-02-28T05:34:16;20.90;;;13.50;;
76826;SDS011;65788;52.284;20.890;2023-02-28T05:36:43;21.20;;;13.20;;
76826;SDS011;65788;52.284;20.890;2023-02-28T05:39:10;20.40;;;13.70;;
76826;SDS011;65788;52.284;20.890;2023-02-28T05:41:42;21.80;;;14.40;;
76826;SDS011;65788;52.284;20.890;2023-02-28T05:44:10;20.50;;;13.90;;
76826;SDS011;65788;52.284;20.890;2023-02-28T05:46:37;21.80;;;13.60;;
76826;SDS011;65788;52.284;20.890;2023-02-28T05:49:05;21.80;;;14.40;;
76826;SDS011;65788;52.284;20.890;2023-02-28T05:51:32;23.30;;;16.30;;
76826;SDS011;65788;52.284;20.890;2023-02-28T05:54:01;27.10;;;17.80;;
76826;SDS011;65788;52.284;20.890;2023-02-28T05:56:28;24.80;;;16.90;;
76826;SDS011;65788;52.284;20.890;2023-02-28T05:58:56;23.40;;;17.40;;
76826;SDS011;65788;52.284;20.890;2023-02-28T06:01:34;24.80;;;17.60;;
76826;SDS011;65788;52.284;20.890;2023-02-28T06:04:15;25.00;;;17.20;;
76826;SDS011;65788;52.284;20.890;2023-02-28T06:06:46;23.80;;;17.50;;
76826;SDS011;65788;52.284;20.890;2023-02-28T06:09:14;25.60;;;16.90;;
76826;SDS011;65788;52.284;20.890;2023-02-28T06:11:41;23.70;;;17.00;;
76826;SDS011;65788;52.284;20.890;2023-02-28T06:14:12;24.80;;;16.40;;
76826;SDS011;65788;52.284;20.890;2023-02-28T06:16:45;23.60;;;17.00;;
76826;SDS011;65788;52.284;20.890;2023-02-28T06:19:12;27.60;;;16.60;;
76826;SDS011;65788;52.284;20.890;2023-02-28T06:21:40;22.20;;;15.00;;
76826;SDS011;65788;52.284;20.890;2023-02-28T06:24:07;23.90;;;16.30;;
76826;SDS011;65788;52.284;20.890;2023-02-28T06:26:35;25.00;;;15.00;;
76826;SDS011;65788;52.284;20.890;2023-02-28T06:29:03;21.70;;;15.00;;
76826;SDS011;65788;52.284;20.890;2023-02-28T06:31:30;25.30;;;16.20;;
76826;SDS011;65788;52.284;20.890;2023-02-28T06:33:57;23.30;;;15.00;;
76826;SDS011;65788;52.284;20.890;2023-02-28T06:36:24;24.10;;;15.70;;
76826;SDS011;65788;52.284;20.890;2023-02-28T06:38:51;22.40;;;15.50;;
76826;SDS011;65788;52.284;20.890;2023-02-28T06:41:22;21.20;;;15.50;;
76826;SDS011;65788;52.284;20.890;2023-02-28T06:43:51;22.90;;;15.70;;
76826;SDS011;65788;52.284;20.890;2023-02-28T06:46:20;22.00;;;14.40;;
76826;SDS011;65788;52.284;20.890;2023-02-28T06:48:49;24.20;;;14.60;;
76826;SDS011;65788;52.284;20.890;2023-02-28T06:51:18;22.60;;;15.40;;
76826;SDS011;65788;52.284;20.890;2023-02-28T06:53:48;24.60;;;15.20;;
76826;SDS011;65788;52.284;20.890;2023-02-28T06:56:16;24.60;;;15.20;;
76826;SDS011;65788;52.284;20.890;2023-02-28T06:58:47;22.40;;;15.50;;
76826;SDS011;65788;52.284;20.890;2023-02-28T07:01:16;22.80;;;15.60;;
76826;SDS011;65788;52.284;20.890;2023-02-28T07:03:44;24.60;;;15.40;;
76826;SDS011;65788;52.284;20.890;2023-02-28T07:06:19;21.40;;;14.30;;
76826;SDS011;65788;52.284;20.890;2023-02-28T07:08:50;25.70;;;16.40;;
76826;SDS011;65788;52.284;20.890;2023-02-28T07:11:22;25.30;;;14.30;;
76826;SDS011;65788;52.284;20.890;2023-02-28T07:13:52;22.20;;;15.20;;
76826;SDS011;65788;52.284;20.890;2023-02-28T07:18:48;22.30;;;14.60;;
76826;SDS011;65788;52.284;20.890;2023-02-28T07:21:15;20.90;;;15.00;;
76826;SDS011;65788;52.284;20.890;2023-02-28T07:23:43;20.20;;;14.20;;
76826;SDS011;65788;52.284;20.890;2023-02-28T07:26:12;20.50;;;14.00;;
76826;SDS011;65788;52.284;20.890;2023-02-28T07:28:41;22.50;;;14.90;;
76826;SDS011;65788;52.284;20.890;2023-02-28T07:31:09;22.00;;;15.50;;
76826;SDS011;65788;52.284;20.890;2023-02-28T07:33:37;23.30;;;13.60;;
76826;SDS011;65788;52.284;20.890;2023-02-28T07:36:05;18.50;;;13.20;;
76826;SDS011;65788;52.284;20.890;2023-02-28T07:38:35;22.90;;;13.90;;
76826;SDS011;65788;52.284;20.890;2023-02-28T07:41:03;20.50;;;13.50;;
76826;SDS011;65788;52.284;20.890;2023-02-28T07:43:31;22.00;;;13.30;;
76826;SDS011;65788;52.284;20.890;2023-02-28T07:46:06;21.10;;;13.60;;
76826;SDS011;65788;52.284;20.890;2023-02-28T07:48:35;18.70;;;12.10;;
76826;SDS011;65788;52.284;20.890;2023-02-28T07:51:02;19.40;;;12.60;;
76826;SDS011;65788;52.284;20.890;2023-02-28T07:53:30;20.50;;;13.00;;
76826;SDS011;65788;52.284;20.890;2023-02-28T07:55:57;21.00;;;11.90;;
76826;SDS011;65788;52.284;20.890;2023-02-28T07:58:27;19.10;;;12.20;;
76826;SDS011;65788;52.284;20.890;2023-02-28T08:00:57;20.80;;;11.50;;
76826;SDS011;65788;52.284;20.890;2023-02-28T08:03:31;17.70;;;11.70;;
76826;SDS011;65788;52.284;20.890;2023-02-28T08:05:59;18.20;;;11.60;;
76826;SDS011;65788;52.284;20.890;2023-02-28T08:08:26;17.80;;;11.30;;
76826;SDS011;65788;52.284;20.890;2023-02-28T08:10:58;19.80;;;11.90;;
76826;SDS011;65788;52.284;20.890;2023-02-28T08:13:27;17.90;;;11.60;;
76826;SDS011;65788;52.284;20.890;2023-02-28T08:18:23;16.50;;;11.30;;
76826;SDS011;65788;52.284;20.890;2023-02-28T08:20:50;16.80;;;11.30;;
76826;SDS011;65788;52.284;20.890;2023-02-28T08:23:18;16.20;;;10.20;;
76826;SDS011;65788;52.284;20.890;2023-02-28T08:25:52;17.50;;;11.10;;
76826;SDS011;65788;52.284;20.890;2023-02-28T08:28:20;16.60;;;10.10;;
76826;SDS011;65788;52.284;20.890;2023-02-28T08:30:50;15.50;;;10.20;;
76826;SDS011;65788;52.284;20.890;2023-02-28T08:33:17;14.90;;;11.30;;
76826;SDS011;65788;52.284;20.890;2023-02-28T08:35:44;13.90;;;9.70;;
76826;SDS011;65788;52.284;20.890;2023-02-28T08:38:12;15.60;;;9.80;;
76826;SDS011;65788;52.284;20.890;2023-02-28T08:40:39;14.20;;;9.50;;
76826;SDS011;65788;52.284;20.890;2023-02-28T08:43:07;14.80;;;9.40;;
76826;SDS011;65788;52.284;20.890;2023-02-28T08:45:34;14.30;;;9.40;;
76826;SDS011;65788;52.284;20.890;2023-02-28T08:48:03;14.20;;;9.70;;
76826;SDS011;65788;52.284;20.890;2023-02-28T08:50:30;13.00;;;8.60;;
76826;SDS011;65788;52.284;20.890;2023-02-28T08:52:59;13.50;;;9.00;;
76826;SDS011;65788;52.284;20.890;2023-02-28T08:55:26;11.40;;;8.40;;
76826;SDS011;65788;52.284;20.890;2023-02-28T08:57:53;13.70;;;8.30;;
76826;SDS011;65788;52.284;20.890;2023-02-28T09:00:22;13.80;;;9.10;;
76826;SDS011;65788;52.284;20.890;2023-02-28T09:02:49;12.30;;;8.60;;
76826;SDS011;65788;52.284;20.890;2023-02-28T09:05:17;11.10;;;8.40;;
76826;SDS011;65788;52.284;20.890;2023-02-28T09:07:43;12.70;;;8.10;;
76826;SDS011;65788;52.284;20.890;2023-02-28T09:10:11;11.90;;;8.30;;
76826;SDS011;65788;52.284;20.890;2023-02-28T09:12:38;10.00;;;7.20;;
76826;SDS011;65788;52.284;20.890;2023-02-28T09:15:05;11.40;;;6.90;;
76826;SDS011;65788;52.284;20.890;2023-02-28T09:17:33;11.90;;;8.00;;
76826;SDS011;65788;52.284;20.890;2023-02-28T09:20:00;11.40;;;7.60;;
76826;SDS011;65788;52.284;20.890;2023-02-28T09:22:27;12.40;;;8.00;;
76826;SDS011;65788;52.284;20.890;2023-02-28T09:24:55;11.30;;;6.80;;
76826;SDS011;65788;52.284;20.890;2023-02-28T09:27:22;9.30;;;6.70;;
76826;SDS011;65788;52.284;20.890;2023-02-28T09:29:49;11.60;;;7.10;;
76826;SDS011;65788;52.284;20.890;2023-02-28T09:32:16;11.40;;;7.50;;
76826;SDS011;65788;52.284;20.890;2023-02-28T09:34:44;11.80;;;7.60;;
76826;SDS011;65788;52.284;20.890;2023-02-28T09:37:11;10.60;;;7.20;;
76826;SDS011;65788;52.284;20.890;2023-02-28T09:39:38;9.80;;;7.70;;
76826;SDS011;65788;52.284;20.890;2023-02-28T09:42:05;10.40;;;6.90;;
76826;SDS011;65788;52.284;20.890;2023-02-28T09:44:42;10.80;;;7.10;;
76826;SDS011;65788;52.284;20.890;2023-02-28T09:52:42;9.20;;;6.70;;
76826;SDS011;65788;52.284;20.890;2023-02-28T09:57:43;9.20;;;6.00;;
76826;SDS011;65788;52.284;20.890;2023-02-28T10:03:32;9.30;;;6.40;;
76826;SDS011;65788;52.284;20.890;2023-02-28T10:06:07;12.30;;;6.60;;
76826;SDS011;65788;52.284;20.890;2023-02-28T10:11:25;10.70;;;6.20;;
76826;SDS011;65788;52.284;20.890;2023-02-28T10:16:44;10.50;;;6.10;;
76826;SDS011;65788;52.284;20.890;2023-02-28T10:27:30;8.90;;;6.10;;
76826;SDS011;65788;52.284;20.890;2023-02-28T10:32:32;7.60;;;5.50;;
76826;SDS011;65788;52.284;20.890;2023-02-28T10:35:18;8.10;;;5.50;;
76826;SDS011;65788;52.284;20.890;2023-02-28T10:37:49;8.40;;;5.60;;
76826;SDS011;65788;52.284;20.890;2023-02-28T10:40:34;8.80;;;5.90;;
76826;SDS011;65788;52.284;20.890;2023-02-28T10:45:59;8.50;;;5.40;;
76826;SDS011;65788;52.284;20.890;2023-02-28T10:51:13;8.70;;;5.40;;
76826;SDS011;65788;52.284;20.890;2023-02-28T11:01:45;7.40;;;4.70;;
76826;SDS011;65788;52.284;20.890;2023-02-28T11:07:21;9.10;;;5.30;;
76826;SDS011;65788;52.284;20.890;2023-02-28T11:09:54;8.10;;;5.10;;
76826;SDS011;65788;52.284;20.890;2023-02-28T11:12:42;7.50;;;4.80;;
76826;SDS011;65788;52.284;20.890;2023-02-28T11:15:23;10.10;;;6.00;;
76826;SDS011;65788;52.284;20.890;2023-02-28T11:20:38;7.10;;;5.00;;
76826;SDS011;65788;52.284;20.890;2023-02-28T11:23:10;8.60;;;5.70;;
76826;SDS011;65788;52.284;20.890;2023-02-28T11:25:40;7.80;;;4.80;;
76826;SDS011;65788;52.284;20.890;2023-02-28T11:31:08;7.90;;;5.30;;
76826;SDS011;65788;52.284;20.890;2023-02-28T11:33:47;8.10;;;5.20;;
76826;SDS011;65788;52.284;20.890;2023-02-28T11:38:55;8.70;;;5.60;;
76826;SDS011;65788;52.284;20.890;2023-02-28T11:44:34;7.30;;;5.30;;
76826;SDS011;65788;52.284;20.890;2023-02-28T11:47:15;7.50;;;4.90;;
76826;SDS011;65788;52.284;20.890;2023-02-28T11:50:00;7.20;;;4.90;;
76826;SDS011;65788;52.284;20.890;2023-02-28T11:55:49;7.40;;;4.80;;
76826;SDS011;65788;52.284;20.890;2023-02-28T12:06:53;6.80;;;4.80;;
76826;SDS011;65788;52.284;20.890;2023-02-28T12:12:11;7.10;;;4.70;;
76826;SDS011;65788;52.284;20.890;2023-02-28T12:20:25;7.70;;;5.10;;
76826;SDS011;65788;52.284;20.890;2023-02-28T12:29:23;7.20;;;4.60;;
76826;SDS011;65788;52.284;20.890;2023-02-28T12:31:59;6.50;;;4.50;;
76826;SDS011;65788;52.284;20.890;2023-02-28T12:34:33;7.90;;;4.70;;
76826;SDS011;65788;52.284;20.890;2023-02-28T12:40:18;7.20;;;4.60;;
76826;SDS011;65788;52.284;20.890;2023-02-28T12:46:13;7.00;;;4.90;;
76826;SDS011;65788;52.284;20.890;2023-02-28T12:48:24;7.00;;;4.70;;
76826;SDS011;65788;52.284;20.890;2023-02-28T12:50:59;7.00;;;4.40;;
76826;SDS011;65788;52.284;20.890;2023-02-28T12:56:44;10.70;;;7.60;;
76826;SDS011;65788;52.284;20.890;2023-02-28T12:59:38;8.70;;;4.80;;
76826;SDS011;65788;52.284;20.890;2023-02-28T13:11:02;6.90;;;4.80;;
76826;SDS011;65788;52.284;20.890;2023-02-28T13:13:30;6.80;;;4.40;;
76826;SDS011;65788;52.284;20.890;2023-02-28T13:18:45;7.50;;;4.50;;
76826;SDS011;65788;52.284;20.890;2023-02-28T13:21:23;7.40;;;4.60;;
76826;SDS011;65788;52.284;20.890;2023-02-28T13:29:20;6.50;;;4.50;;
76826;SDS011;65788;52.284;20.890;2023-02-28T13:34:37;6.80;;;4.00;;
76826;SDS011;65788;52.284;20.890;2023-02-28T13:39:52;7.40;;;4.50;;
76826;SDS011;65788;52.284;20.890;2023-02-28T13:45:23;7.30;;;4.40;;
76826;SDS011;65788;52.284;20.890;2023-02-28T13:48:02;5.90;;;3.80;;
76826;SDS011;65788;52.284;20.890;2023-02-28T13:50:40;7.40;;;4.40;;
76826;SDS011;65788;52.284;20.890;2023-02-28T13:58:22;7.90;;;5.00;;
76826;SDS011;65788;52.284;20.890;2023-02-28T14:01:05;5.80;;;3.80;;
76826;SDS011;65788;52.284;20.890;2023-02-28T14:06:32;8.70;;;4.60;;
76826;SDS011;65788;52.284;20.890;2023-02-28T14:11:39;6.70;;;4.60;;
76826;SDS011;65788;52.284;20.890;2023-02-28T14:17:01;6.90;;;4.50;;
76826;SDS011;65788;52.284;20.890;2023-02-28T14:19:31;6.50;;;4.40;;
76826;SDS011;65788;52.284;20.890;2023-02-28T14:36:18;6.20;;;4.20;;
76826;SDS011;65788;52.284;20.890;2023-02-28T14:38:51;7.90;;;4.60;;
76826;SDS011;65788;52.284;20.890;2023-02-28T14:41:31;8.50;;;4.20;;
76826;SDS011;65788;52.284;20.890;2023-02-28T14:44:21;7.10;;;4.60;;
76826;SDS011;65788;52.284;20.890;2023-02-28T14:46:50;8.20;;;4.70;;
76826;SDS011;65788;52.284;20.890;2023-02-28T14:49:24;8.40;;;4.50;;
76826;SDS011;65788;52.284;20.890;2023-02-28T14:54:53;7.10;;;4.30;;
76826;SDS011;65788;52.284;20.890;2023-02-28T14:57:27;7.50;;;4.20;;
76826;SDS011;65788;52.284;20.890;2023-02-28T15:07:44;8.70;;;4.10;;
76826;SDS011;65788;52.284;20.890;2023-02-28T15:10:22;6.70;;;4.20;;
76826;SDS011;65788;52.284;20.890;2023-02-28T15:13:35;9.40;;;4.40;;
76826;SDS011;65788;52.284;20.890;2023-02-28T15:21:18;6.40;;;4.10;;
76826;SDS011;65788;52.284;20.890;2023-02-28T15:23:49;9.90;;;4.10;;
76826;SDS011;65788;52.284;20.890;2023-02-28T15:26:22;9.80;;;4.60;;
76826;SDS011;65788;52.284;20.890;2023-02-28T15:29:04;7.70;;;4.40;;
76826;SDS011;65788;52.284;20.890;2023-02-28T15:34:05;7.70;;;4.20;;
76826;SDS011;65788;52.284;20.890;2023-02-28T15:36:41;7.40;;;5.00;;
76826;SDS011;65788;52.284;20.890;2023-02-28T15:39:21;9.50;;;5.30;;
76826;SDS011;65788;52.284;20.890;2023-02-28T15:42:16;6.40;;;4.60;;
76826;SDS011;65788;52.284;20.890;2023-02-28T15:44:47;7.60;;;4.80;;
76826;SDS011;65788;52.284;20.890;2023-02-28T15:47:22;9.60;;;5.10;;
76826;SDS011;65788;52.284;20.890;2023-02-28T15:49:54;9.30;;;4.90;;
76826;SDS011;65788;52.284;20.890;2023-02-28T15:52:37;9.80;;;5.60;;
76826;SDS011;65788;52.284;20.890;2023-02-28T15:55:10;7.00;;;4.50;;
76826;SDS011;65788;52.284;20.890;2023-02-28T15:57:51;8.80;;;4.90;;
76826;SDS011;65788;52.284;20.890;2023-02-28T16:00:22;7.00;;;4.70;;
76826;SDS011;65788;52.284;20.890;2023-02-28T16:02:53;6.90;;;4.60;;
76826;SDS011;65788;52.284;20.890;2023-02-28T16:05:22;10.60;;;5.20;;
76826;SDS011;65788;52.284;20.890;2023-02-28T16:07:59;8.20;;;4.80;;
76826;SDS011;65788;52.284;20.890;2023-02-28T16:10:29;7.60;;;5.00;;
76826;SDS011;65788;52.284;20.890;2023-02-28T16:12:57;7.40;;;4.70;;
76826;SDS011;65788;52.284;20.890;2023-02-28T16:15:28;7.20;;;5.00;;
76826;SDS011;65788;52.284;20.890;2023-02-28T16:17:57;8.30;;;5.60;;
76826;SDS011;65788;52.284;20.890;2023-02-28T16:20:29;8.30;;;5.10;;
76826;SDS011;65788;52.284;20.890;2023-02-28T16:22:57;7.70;;;5.80;;
76826;SDS011;65788;52.284;20.890;2023-02-28T16:25:34;8.30;;;5.30;;
76826;SDS011;65788;52.284;20.890;2023-02-28T16:28:03;8.10;;;4.90;;
76826;SDS011;65788;52.284;20.890;2023-02-28T16:30:36;10.10;;;5.20;;
76826;SDS011;65788;52.284;20.890;2023-02-28T16:33:03;7.60;;;5.20;;
76826;SDS011;65788;52.284;20.890;2023-02-28T16:35:30;7.70;;;5.50;;
76826;SDS011;65788;52.284;20.890;2023-02-28T16:37:57;8.10;;;5.50;;
76826;SDS011;65788;52.284;20.890;2023-02-28T16:40:25;9.60;;;5.40;;
76826;SDS011;65788;52.284;20.890;2023-02-28T16:42:57;7.90;;;5.40;;
76826;SDS011;65788;52.284;20.890;2023-02-28T16:45:27;9.80;;;5.60;;
76826;SDS011;65788;52.284;20.890;2023-02-28T16:47:55;8.80;;;5.20;;
76826;SDS011;65788;52.284;20.890;2023-02-28T16:50:24;8.00;;;5.20;;
76826;SDS011;65788;52.284;20.890;2023-02-28T16:52:54;9.40;;;5.80;;
76826;SDS011;65788;52.284;20.890;2023-02-28T16:55:22;9.10;;;5.50;;
76826;SDS011;65788;52.284;20.890;2023-02-28T16:57:51;9.20;;;5.90;;
76826;SDS011;65788;52.284;20.890;2023-02-28T17:00:21;9.20;;;5.60;;
76826;SDS011;65788;52.284;20.890;2023-02-28T17:02:50;9.30;;;5.50;;
76826;SDS011;65788;52.284;20.890;2023-02-28T17:05:17;9.00;;;5.50;;
76826;SDS011;65788;52.284;20.890;2023-02-28T17:07:45;8.90;;;5.50;;
76826;SDS011;65788;52.284;20.890;2023-02-28T17:10:17;11.30;;;5.80;;
76826;SDS011;65788;52.284;20.890;2023-02-28T17:12:47;8.80;;;5.90;;
76826;SDS011;65788;52.284;20.890;2023-02-28T17:15:15;10.80;;;6.10;;
76826;SDS011;65788;52.284;20.890;2023-02-28T17:17:43;9.00;;;6.10;;
76826;SDS011;65788;52.284;20.890;2023-02-28T17:20:15;9.00;;;5.40;;
76826;SDS011;65788;52.284;20.890;2023-02-28T17:22:44;12.40;;;5.50;;
76826;SDS011;65788;52.284;20.890;2023-02-28T17:25:12;9.60;;;5.50;;
76826;SDS011;65788;52.284;20.890;2023-02-28T17:27:39;8.50;;;5.70;;
76826;SDS011;65788;52.284;20.890;2023-02-28T17:30:13;10.20;;;6.40;;
76826;SDS011;65788;52.284;20.890;2023-02-28T17:32:42;9.80;;;6.20;;
76826;SDS011;65788;52.284;20.890;2023-02-28T17:35:12;11.10;;;6.50;;
76826;SDS011;65788;52.284;20.890;2023-02-28T17:37:40;10.20;;;6.10;;
76826;SDS011;65788;52.284;20.890;2023-02-28T17:40:18;9.80;;;6.30;;
76826;SDS011;65788;52.284;20.890;2023-02-28T17:42:47;10.50;;;6.20;;
76826;SDS011;65788;52.284;20.890;2023-02-28T17:45:15;24.50;;;7.50;;
76826;SDS011;65788;52.284;20.890;2023-02-28T17:47:45;22.00;;;7.30;;
76826;SDS011;65788;52.284;20.890;2023-02-28T17:50:18;20.90;;;7.40;;
76826;SDS011;65788;52.284;20.890;2023-02-28T17:52:48;15.20;;;7.00;;
76826;SDS011;65788;52.284;20.890;2023-02-28T17:55:17;14.20;;;6.40;;
76826;SDS011;65788;52.284;20.890;2023-02-28T17:57:45;14.00;;;7.30;;
76826;SDS011;65788;52.284;20.890;2023-02-28T18:00:15;15.10;;;7.40;;